Time;durP1;ratioP1;P1;durP2;ratioP2;P2;SDS_P1;SDS_P2;PMS_P1;PMS_P2;Temp;Humidity;BMP_temperature;BMP_pressure;BME280_temperature;BME280_humidity;BME280_pressure;Samples;Min_cycle;Max_cycle;Signal;HPM_P1;HPM_P2
2022/07/14 00:01:37;;;;;;;5.65;1.23;;;13.70;99.90;;;;;;5090602;28;20023;-55
2022/07/14 00:04:04;;;;;;;5.68;2.15;;;13.70;99.90;;;;;;5109212;28;20099;-54
2022/07/14 00:06:29;;;;;;;5.85;1.60;;;13.60;99.90;;;;;;5090260;28;20020;-53
2022/07/14 00:08:55;;;;;;;8.60;2.67;;;13.60;99.90;;;;;;5105712;28;20374;-55
2022/07/14 00:11:20;;;;;;;10.10;1.52;;;13.60;99.90;;;;;;5081042;28;20157;-57
2022/07/14 00:13:46;;;;;;;6.70;2.03;;;13.60;99.90;;;;;;5103952;28;20548;-53
2022/07/14 00:16:12;;;;;;;4.40;1.60;;;13.50;99.90;;;;;;5108860;28;20038;-55
2022/07/14 00:18:43;;;;;;;7.38;2.13;;;13.50;99.90;;;;;;5109156;28;20750;-55
2022/07/14 00:21:09;;;;;;;7.50;1.92;;;13.50;99.90;;;;;;5090396;28;20028;-59
2022/07/14 00:23:35;;;;;;;5.20;1.75;;;13.40;99.90;;;;;;5089140;28;20558;-50
2022/07/14 00:26:03;;;;;;;3.78;1.80;;;13.40;99.90;;;;;;5108680;28;20026;-53
2022/07/14 00:28:29;;;;;;;7.45;2.03;;;13.40;99.90;;;;;;5106749;28;20059;-52
2022/07/14 00:30:54;;;;;;;5.65;1.73;;;13.40;99.90;;;;;;5088299;28;20460;-50
2022/07/14 00:33:20;;;;;;;6.00;1.73;;;13.40;99.90;;;;;;5104152;28;20459;-57
2022/07/14 00:35:46;;;;;;;8.23;1.90;;;13.40;99.90;;;;;;5101676;28;20024;-57
2022/07/14 00:38:11;;;;;;;7.63;2.00;;;13.40;99.90;;;;;;5105460;28;20172;-51
2022/07/14 00:40:37;;;;;;;9.80;2.00;;;13.30;99.90;;;;;;5107101;28;20036;-54
2022/07/14 00:43:03;;;;;;;7.82;2.28;;;13.30;99.90;;;;;;5103204;22;20040;-49
2022/07/14 00:45:28;;;;;;;4.25;1.58;;;13.20;99.90;;;;;;5068150;28;20024;-51
2022/07/14 00:47:54;;;;;;;6.97;2.28;;;13.20;99.90;;;;;;5068480;28;20522;-56
2022/07/14 00:50:20;;;;;;;5.78;2.45;;;13.20;99.90;;;;;;5051045;28;20120;-51
2022/07/14 00:52:47;;;;;;;8.65;2.70;;;13.10;99.90;;;;;;5068202;28;20111;-49
2022/07/14 00:55:14;;;;;;;9.07;2.47;;;13.10;99.90;;;;;;5068947;28;20025;-48
2022/07/14 00:57:40;;;;;;;5.30;1.83;;;13.00;99.90;;;;;;5068086;28;20482;-48
2022/07/14 01:00:10;;;;;;;3.97;1.75;;;13.00;99.90;;;;;;5061457;28;20555;-48
2022/07/14 01:02:36;;;;;;;6.85;1.90;;;13.00;99.90;;;;;;5069861;28;20061;-49
2022/07/14 01:05:03;;;;;;;6.47;2.08;;;13.00;99.90;;;;;;5070129;28;20036;-47
2022/07/14 01:07:28;;;;;;;8.90;2.63;;;13.00;99.90;;;;;;5070922;28;20274;-49
2022/07/14 01:09:54;;;;;;;5.95;2.10;;;12.90;99.90;;;;;;5054811;28;20044;-54
2022/07/14 01:12:20;;;;;;;2.80;1.65;;;12.90;99.90;;;;;;5071462;28;20065;-47
2022/07/14 01:14:45;;;;;;;7.57;2.17;;;12.90;99.90;;;;;;5055698;28;20032;-48
2022/07/14 01:17:11;;;;;;;7.07;2.38;;;12.90;99.90;;;;;;5070418;28;20501;-51
2022/07/14 01:19:37;;;;;;;4.18;2.15;;;12.90;99.90;;;;;;5072409;28;20139;-53
2022/07/14 01:22:04;;;;;;;6.10;1.85;;;12.90;99.90;;;;;;5061943;28;20028;-52
2022/07/14 01:24:30;;;;;;;6.63;2.15;;;12.80;99.90;;;;;;5069194;28;20096;-54
2022/07/14 01:26:55;;;;;;;3.33;2.00;;;12.80;99.90;;;;;;5072129;28;20434;-54
2022/07/14 01:29:22;;;;;;;5.13;1.67;;;12.70;99.90;;;;;;5072087;28;20039;-54
2022/07/14 01:31:47;;;;;;;6.18;2.45;;;12.70;99.90;;;;;;5068169;28;20075;-56
2022/07/14 01:34:13;;;;;;;5.18;1.90;;;12.60;99.90;;;;;;5071990;28;20560;-52
2022/07/14 01:36:39;;;;;;;5.65;2.28;;;12.50;99.90;;;;;;5071907;28;20020;-53
2022/07/14 01:39:05;;;;;;;8.32;3.00;;;12.50;99.90;;;;;;5072016;28;20081;-53
2022/07/14 01:41:31;;;;;;;10.13;2.10;;;12.40;99.90;;;;;;5071425;28;20086;-54
2022/07/14 01:43:57;;;;;;;4.05;1.95;;;12.30;99.90;;;;;;5058149;28;20040;-47
2022/07/14 01:46:23;;;;;;;5.00;2.22;;;12.30;99.90;;;;;;5060443;28;20025;-51
2022/07/14 01:48:48;;;;;;;10.27;3.10;;;12.30;99.90;;;;;;5067606;28;20059;-53
2022/07/14 01:51:14;;;;;;;4.00;1.60;;;12.20;99.90;;;;;;5063345;28;20033;-48
2022/07/14 01:53:41;;;;;;;4.43;2.15;;;12.20;99.90;;;;;;5065772;28;20024;-52
2022/07/14 01:56:10;;;;;;;3.42;1.75;;;12.20;99.90;;;;;;5071887;28;20048;-54
2022/07/14 01:58:37;;;;;;;4.70;1.60;;;12.20;99.90;;;;;;5071350;28;20542;-49
2022/07/14 02:03:56;;;;;;;7.15;2.05;;;12.10;99.90;;;;;;5047746;28;20047;-47
2022/07/14 02:06:21;;;;;;;5.05;1.85;;;12.10;99.90;;;;;;5063349;28;20024;-53
2022/07/14 02:08:47;;;;;;;1.88;1.50;;;12.10;99.90;;;;;;5066586;28;20118;-46
2022/07/14 02:13:57;;;;;;;5.93;1.45;;;12.00;99.90;;;;;;5071355;28;20042;-50
2022/07/14 02:16:23;;;;;;;5.25;1.80;;;12.00;99.90;;;;;;5070032;28;20025;-49
2022/07/14 02:18:49;;;;;;;4.53;1.65;;;11.90;99.90;;;;;;5064266;28;20095;-48
2022/07/14 02:21:15;;;;;;;8.85;2.30;;;11.90;99.90;;;;;;5066321;28;20017;-53
2022/07/14 02:23:40;;;;;;;2.15;1.65;;;11.80;99.90;;;;;;5071076;28;20021;-48
2022/07/14 02:26:13;;;;;;;2.95;1.25;;;11.80;99.90;;;;;;5071401;28;20024;-51
2022/07/14 02:28:42;;;;;;;6.13;2.35;;;11.80;99.90;;;;;;5071286;28;20453;-48
2022/07/14 02:31:09;;;;;;;6.20;2.20;;;11.70;99.90;;;;;;5070848;28;20031;-54
2022/07/14 02:33:35;;;;;;;6.13;2.15;;;11.70;99.90;;;;;;5069280;28;20107;-48
2022/07/14 02:36:01;;;;;;;5.25;2.10;;;11.70;99.90;;;;;;5071043;28;20436;-52
2022/07/14 02:38:27;;;;;;;9.85;1.75;;;11.60;99.90;;;;;;5070686;28;20111;-50
2022/07/14 02:40:52;;;;;;;5.97;2.22;;;11.60;99.90;;;;;;5071045;28;20028;-50
2022/07/14 02:43:18;;;;;;;4.88;1.80;;;11.50;99.90;;;;;;5054096;28;20033;-48
2022/07/14 02:45:44;;;;;;;8.77;2.33;;;11.50;99.90;;;;;;5062540;28;20074;-49
2022/07/14 02:48:09;;;;;;;4.65;1.55;;;11.50;99.90;;;;;;5053427;28;20741;-55
2022/07/14 02:50:40;;;;;;;8.68;2.42;;;11.40;99.90;;;;;;5068872;28;20071;-48
2022/07/14 02:53:05;;;;;;;5.88;2.22;;;11.40;99.90;;;;;;5067963;28;20419;-45
2022/07/14 02:55:34;;;;;;;4.15;2.22;;;11.40;99.90;;;;;;5065665;28;20024;-49
2022/07/14 02:58:00;;;;;;;6.03;2.45;;;11.40;99.90;;;;;;5070484;28;20111;-54
2022/07/14 03:00:26;;;;;;;4.75;1.90;;;11.40;99.90;;;;;;5052621;28;20116;-51
2022/07/14 03:02:52;;;;;;;4.05;1.75;;;11.40;99.90;;;;;;5070830;28;20024;-48
2022/07/14 03:05:17;;;;;;;5.30;2.00;;;11.40;99.90;;;;;;5062552;28;20021;-50
2022/07/14 03:07:43;;;;;;;4.53;2.15;;;11.30;99.90;;;;;;5068195;28;20028;-48
2022/07/14 03:10:09;;;;;;;5.10;1.98;;;11.30;99.90;;;;;;5070550;28;20039;-52
2022/07/14 03:12:35;;;;;;;4.82;1.88;;;11.30;99.90;;;;;;5069494;28;20402;-49
2022/07/14 03:15:00;;;;;;;9.02;1.83;;;11.30;99.90;;;;;;5060386;28;20029;-51
2022/07/14 03:17:26;;;;;;;4.38;1.90;;;11.30;99.90;;;;;;5065006;28;20060;-48
2022/07/14 03:19:53;;;;;;;6.85;3.00;;;11.30;99.90;;;;;;5062089;28;20029;-48
2022/07/14 03:22:19;;;;;;;5.15;2.42;;;11.30;99.90;;;;;;5064156;28;20021;-51
2022/07/14 03:24:44;;;;;;;6.88;1.50;;;11.30;99.90;;;;;;5066166;28;20047;-54
2022/07/14 03:27:10;;;;;;;4.63;1.90;;;11.30;99.90;;;;;;5070000;28;20025;-49
2022/07/14 03:29:40;;;;;;;5.28;2.05;;;11.30;99.90;;;;;;5069842;28;20059;-49
2022/07/14 03:32:06;;;;;;;5.45;2.05;;;11.30;99.90;;;;;;5067382;28;20104;-51
2022/07/14 03:34:31;;;;;;;6.55;2.17;;;11.30;99.90;;;;;;5069905;28;20441;-52
2022/07/14 03:36:57;;;;;;;4.68;1.60;;;11.20;99.90;;;;;;5060284;28;20028;-57
2022/07/14 03:39:23;;;;;;;3.08;1.83;;;11.30;99.90;;;;;;5063524;28;20024;-52
2022/07/14 03:41:48;;;;;;;6.20;2.00;;;11.20;99.90;;;;;;5066423;28;20078;-51
2022/07/14 03:44:14;;;;;;;5.30;2.10;;;11.20;99.90;;;;;;5047804;28;20029;-53
2022/07/14 03:46:39;;;;;;;5.93;1.98;;;11.20;99.90;;;;;;5067949;28;20447;-52
2022/07/14 03:49:05;;;;;;;3.55;1.40;;;11.30;99.90;;;;;;5061252;28;20036;-51
2022/07/14 03:51:31;;;;;;;5.13;2.10;;;11.20;99.90;;;;;;5068509;28;20055;-53
2022/07/14 03:53:56;;;;;;;5.13;1.95;;;11.20;99.90;;;;;;5060466;28;20375;-51
2022/07/14 03:56:22;;;;;;;3.03;1.63;;;11.20;99.90;;;;;;5063081;28;20031;-53
2022/07/14 03:58:48;;;;;;;7.72;2.03;;;11.30;99.90;;;;;;5069165;28;20055;-54
2022/07/14 04:01:13;;;;;;;3.70;1.95;;;11.30;99.90;;;;;;5069121;28;20029;-52
2022/07/14 04:03:39;;;;;;;6.18;2.10;;;11.30;99.90;;;;;;5067509;28;20029;-53
2022/07/14 04:06:04;;;;;;;3.95;1.88;;;11.20;99.90;;;;;;5063605;28;20052;-55
2022/07/14 04:08:30;;;;;;;7.07;1.85;;;11.30;99.90;;;;;;5066444;28;20028;-53
2022/07/14 04:10:56;;;;;;;6.80;2.30;;;11.30;99.90;;;;;;5069271;28;20043;-51
2022/07/14 04:13:22;;;;;;;8.55;2.58;;;11.30;99.90;;;;;;5065040;28;20058;-54
2022/07/14 04:15:47;;;;;;;5.97;2.08;;;11.30;99.90;;;;;;5069400;28;20503;-48
2022/07/14 04:18:13;;;;;;;5.97;2.10;;;11.30;99.90;;;;;;5064798;28;20045;-49
2022/07/14 04:20:39;;;;;;;4.32;1.65;;;11.30;99.90;;;;;;5065906;28;20690;-51
2022/07/14 04:23:04;;;;;;;2.60;1.90;;;11.30;99.90;;;;;;5069114;28;20020;-54
2022/07/14 04:25:30;;;;;;;8.50;2.42;;;11.40;99.90;;;;;;5066413;28;20028;-48
2022/07/14 04:27:56;;;;;;;7.03;2.42;;;11.30;99.90;;;;;;5050541;28;20028;-48
2022/07/14 04:30:22;;;;;;;8.43;2.17;;;11.40;99.90;;;;;;5068755;28;20235;-49
2022/07/14 04:32:47;;;;;;;4.55;2.35;;;11.40;99.90;;;;;;5067093;28;20024;-49
2022/07/14 04:35:13;;;;;;;6.32;2.42;;;11.40;99.90;;;;;;5060630;28;20162;-50
2022/07/14 04:37:39;;;;;;;4.88;2.28;;;11.40;99.90;;;;;;5061957;28;20564;-51
2022/07/14 04:40:05;;;;;;;6.35;2.50;;;11.50;99.90;;;;;;5065968;28;20028;-48
2022/07/14 04:42:31;;;;;;;8.07;2.28;;;11.50;99.90;;;;;;5064533;28;20025;-53
2022/07/14 04:44:57;;;;;;;3.28;1.80;;;11.50;99.90;;;;;;5068259;28;20451;-51
2022/07/14 04:47:22;;;;;;;6.78;2.05;;;11.50;99.90;;;;;;5068545;28;20025;-51
2022/07/14 04:52:32;;;;;;;6.28;2.40;;;11.60;99.90;;;;;;5063233;28;20073;-48
2022/07/14 04:54:58;;;;;;;6.35;2.13;;;11.70;99.90;;;;;;5061022;28;20033;-47
2022/07/14 04:57:23;;;;;;;6.63;2.15;;;11.70;99.90;;;;;;5068725;28;20103;-51
2022/07/14 04:59:49;;;;;;;5.25;2.03;;;11.80;99.90;;;;;;5053811;28;20049;-48
2022/07/14 05:02:15;;;;;;;6.03;2.35;;;11.80;99.90;;;;;;5068002;28;20016;-47
2022/07/14 05:04:40;;;;;;;3.65;2.10;;;11.80;99.90;;;;;;5060915;28;20017;-48
2022/07/14 05:07:06;;;;;;;9.23;2.33;;;11.90;99.90;;;;;;5063552;28;20029;-49
2022/07/14 05:09:33;;;;;;;5.90;2.55;;;12.00;99.90;;;;;;5068226;28;20391;-51
2022/07/14 05:12:00;;;;;;;6.95;3.17;;;12.10;99.90;;;;;;5066581;28;20127;-47
2022/07/14 05:14:26;;;;;;;4.78;2.30;;;12.10;99.90;;;;;;5051515;28;20115;-54
2022/07/14 05:16:52;;;;;;;6.47;2.63;;;12.20;99.90;;;;;;5064634;28;20043;-52
2022/07/14 05:19:18;;;;;;;7.90;2.50;;;12.30;99.90;;;;;;5064729;28;20032;-48
2022/07/14 05:21:44;;;;;;;2.20;1.65;;;12.30;99.90;;;;;;5051106;28;21413;-48
2022/07/14 05:24:11;;;;;;;5.72;2.60;;;12.40;99.90;;;;;;5066338;28;20017;-53
2022/07/14 05:26:38;;;;;;;5.60;2.13;;;12.40;99.90;;;;;;5068602;28;20047;-47
2022/07/14 05:29:04;;;;;;;4.38;2.15;;;12.50;99.90;;;;;;5066000;28;20142;-47
2022/07/14 05:31:29;;;;;;;7.65;2.55;;;12.60;99.90;;;;;;5062164;28;20031;-47
2022/07/14 05:33:56;;;;;;;9.90;2.58;;;12.70;99.90;;;;;;5069022;28;20111;-47
2022/07/14 05:36:23;;;;;;;6.30;2.60;;;12.80;99.90;;;;;;5049805;28;20495;-46
2022/07/14 05:38:48;;;;;;;7.30;2.20;;;12.80;99.90;;;;;;5068284;28;20036;-48
2022/07/14 05:41:14;;;;;;;7.22;2.05;;;12.90;99.90;;;;;;5064824;28;20402;-49
2022/07/14 05:43:41;;;;;;;6.03;2.58;;;13.00;99.90;;;;;;5062214;28;20021;-49
2022/07/14 05:46:08;;;;;;;5.13;2.30;;;13.10;99.90;;;;;;5070608;28;20025;-50
2022/07/14 05:48:35;;;;;;;4.38;1.50;;;13.20;99.90;;;;;;5063749;28;20457;-54
2022/07/14 05:51:04;;;;;;;5.07;2.20;;;13.30;99.90;;;;;;5070991;28;20120;-50
2022/07/14 05:53:30;;;;;;;3.90;1.50;;;13.40;99.90;;;;;;5070863;28;20400;-46
2022/07/14 05:55:55;;;;;;;3.83;1.98;;;13.50;99.90;;;;;;5071397;28;20025;-51
2022/07/14 05:58:21;;;;;;;2.80;1.20;;;13.60;99.90;;;;;;5071766;28;20021;-47
2022/07/14 06:00:47;;;;;;;7.15;1.95;;;13.70;99.90;;;;;;5053632;28;20017;-48
2022/07/14 06:03:13;;;;;;;3.42;1.50;;;13.90;99.90;;;;;;5071174;28;20020;-47
2022/07/14 06:05:39;;;;;;;7.53;1.77;;;14.00;99.90;;;;;;5071784;28;20505;-48
2022/07/14 06:08:04;;;;;;;4.65;1.35;;;14.20;99.90;;;;;;5071350;28;20025;-47
2022/07/14 06:10:30;;;;;;;5.07;1.45;;;14.30;99.90;;;;;;5071838;28;20118;-51
2022/07/14 06:12:55;;;;;;;6.70;1.73;;;14.40;99.90;;;;;;5070778;28;20043;-47
2022/07/14 06:15:21;;;;;;;3.10;1.58;;;14.50;99.90;;;;;;5071432;28;20066;-50
2022/07/14 06:17:47;;;;;;;4.32;0.98;;;14.70;99.90;;;;;;5071247;28;20511;-47
2022/07/14 06:20:12;;;;;;;1.92;0.60;;;14.80;99.90;;;;;;5071141;28;20013;-48
2022/07/14 06:22:39;;;;;;;3.38;1.05;;;15.00;99.90;;;;;;5070935;28;20031;-53
2022/07/14 06:25:05;;;;;;;5.22;1.42;;;15.10;99.90;;;;;;5071387;28;20493;-52
2022/07/14 06:27:30;;;;;;;2.08;0.63;;;15.20;99.90;;;;;;5070849;28;20032;-53
2022/07/14 06:29:56;;;;;;;7.13;1.00;;;15.40;99.90;;;;;;5070807;28;20394;-47
2022/07/14 06:32:23;;;;;;;4.05;0.70;;;15.50;99.90;;;;;;5071086;28;20024;-51
2022/07/14 06:34:49;;;;;;;3.50;1.13;;;15.70;99.90;;;;;;5070834;28;20069;-51
2022/07/14 06:37:15;;;;;;;2.38;0.98;;;15.80;99.90;;;;;;5070854;28;20071;-56
2022/07/14 06:39:41;;;;;;;4.82;1.25;;;15.90;99.90;;;;;;5065315;28;20390;-56
2022/07/14 06:44:34;;;;;;;2.33;0.47;;;16.10;99.90;;;;;;5076996;28;20529;-57
2022/07/14 06:47:01;;;;;;;2.92;0.80;;;16.30;99.90;;;;;;5069724;28;20020;-55
2022/07/14 06:49:27;;;;;;;4.03;0.82;;;16.40;99.90;;;;;;5070443;28;20107;-56
2022/07/14 06:51:52;;;;;;;2.60;0.60;;;16.60;99.90;;;;;;5049822;28;20112;-55
2022/07/14 06:54:18;;;;;;;4.43;0.95;;;16.80;99.90;;;;;;5048130;28;20025;-52
2022/07/14 06:56:43;;;;;;;4.82;0.55;;;16.80;99.90;;;;;;5064036;28;20036;-55
2022/07/14 06:59:09;;;;;;;4.28;0.85;;;16.80;99.90;;;;;;5056281;28;20028;-56
2022/07/14 07:01:35;;;;;;;1.75;0.80;;;16.70;99.90;;;;;;5065541;28;20403;-55
2022/07/14 07:04:00;;;;;;;0.82;0.40;;;16.80;99.90;;;;;;5075362;28;20469;-54
2022/07/14 07:09:20;;;;;;;3.60;0.90;;;17.00;99.90;;;;;;5060672;28;20039;-51
2022/07/14 07:11:49;;;;;;;3.15;0.70;;;17.00;99.90;;;;;;5076226;28;20100;-55
2022/07/14 07:14:16;;;;;;;1.08;0.50;;;17.10;99.90;;;;;;5074125;28;20009;-52
2022/07/14 07:16:43;;;;;;;2.97;0.65;;;17.10;99.90;;;;;;5075848;28;20739;-53
2022/07/14 07:19:08;;;;;;;3.08;0.88;;;17.00;99.90;;;;;;5074765;28;20032;-54
2022/07/14 07:21:34;;;;;;;4.93;0.70;;;17.00;99.90;;;;;;5054488;28;20134;-54
2022/07/14 07:23:59;;;;;;;2.95;0.82;;;17.10;99.90;;;;;;5053434;28;20036;-53
2022/07/14 07:26:25;;;;;;;4.20;0.70;;;17.20;99.90;;;;;;5079441;28;20490;-51
2022/07/14 07:28:54;;;;;;;2.50;0.60;;;17.30;99.90;;;;;;5073311;28;20536;-54
2022/07/14 07:31:20;;;;;;;4.55;0.75;;;17.50;99.90;;;;;;5065412;28;20016;-54
2022/07/14 07:33:46;;;;;;;0.82;0.50;;;17.80;99.90;;;;;;5063483;28;20020;-52
2022/07/14 07:36:12;;;;;;;2.97;0.55;;;18.00;99.90;;;;;;5054082;28;20031;-51
2022/07/14 07:38:38;;;;;;;0.80;0.40;;;18.30;99.90;;;;;;5061898;28;20033;-53
2022/07/14 07:41:04;;;;;;;2.95;0.60;;;18.50;99.90;;;;;;5072046;28;20376;-51
2022/07/14 07:43:30;;;;;;;4.03;0.57;;;18.70;99.90;;;;;;5073754;28;20545;-51
2022/07/14 07:45:56;;;;;;;4.18;0.50;;;18.80;99.90;;;;;;5042406;28;20059;-55
2022/07/14 07:48:22;;;;;;;2.63;0.65;;;18.90;99.90;;;;;;5056691;28;20028;-53
2022/07/14 07:50:47;;;;;;;3.20;0.70;;;18.90;99.90;;;;;;5074485;28;20043;-55
2022/07/14 07:53:14;;;;;;;4.28;0.93;;;18.90;99.90;;;;;;5073972;28;20066;-55
2022/07/14 07:55:41;;;;;;;4.57;1.27;;;19.10;99.90;;;;;;5068677;28;20034;-53
2022/07/14 07:58:07;;;;;;;1.60;0.40;;;19.20;99.90;;;;;;5079728;28;20036;-57
2022/07/14 08:00:32;;;;;;;2.95;0.55;;;19.30;99.90;;;;;;5050275;28;20111;-55
2022/07/14 08:03:00;;;;;;;3.90;0.77;;;19.60;99.90;;;;;;5077859;28;20103;-51
2022/07/14 08:05:27;;;;;;;2.63;0.82;;;19.70;99.90;;;;;;5069401;28;20035;-54
2022/07/14 08:07:54;;;;;;;2.58;0.73;;;20.00;99.90;;;;;;5071653;28;20383;-56
2022/07/14 08:10:20;;;;;;;1.52;0.55;;;20.20;99.90;;;;;;5070954;28;20495;-55
2022/07/14 08:12:47;;;;;;;2.45;0.75;;;20.40;99.90;;;;;;5075400;28;20102;-55
2022/07/14 08:15:14;;;;;;;0.73;0.60;;;20.70;99.90;;;;;;5067001;28;20333;-55
2022/07/14 08:17:40;;;;;;;3.20;0.93;;;20.80;99.90;;;;;;5051715;28;20032;-57
2022/07/14 08:20:09;;;;;;;2.55;0.80;;;20.70;98.70;;;;;;5070710;28;20025;-52
2022/07/14 08:22:36;;;;;;;1.80;0.52;;;20.60;98.80;;;;;;5069131;28;20020;-53
2022/07/14 08:25:03;;;;;;;3.20;1.08;;;20.60;98.60;;;;;;5069038;28;20040;-52
2022/07/14 08:27:28;;;;;;;1.95;0.50;;;20.70;98.90;;;;;;5070274;28;20017;-52
2022/07/14 08:29:55;;;;;;;3.22;0.55;;;20.80;99.20;;;;;;5075875;28;20046;-58
2022/07/14 08:32:40;;;;;;;1.35;0.52;;;21.00;98.80;;;;;;5073787;28;20020;-58
2022/07/14 08:35:09;;;;;;;1.40;0.60;;;21.20;98.90;;;;;;5053905;28;20123;-52
2022/07/14 08:37:35;;;;;;;3.88;0.95;;;21.40;98.10;;;;;;5053814;28;20053;-56
2022/07/14 08:40:02;;;;;;;1.38;0.63;;;21.40;97.60;;;;;;5054359;28;20020;-56
2022/07/14 08:42:29;;;;;;;6.47;0.60;;;21.20;97.30;;;;;;5073146;28;20105;-54
2022/07/14 08:44:55;;;;;;;8.25;0.77;;;21.00;97.10;;;;;;5077935;28;20024;-53
2022/07/14 08:47:21;;;;;;;1.58;0.50;;;21.00;98.90;;;;;;5072874;28;20012;-54
2022/07/14 08:49:47;;;;;;;2.33;0.63;;;21.20;96.80;;;;;;5056725;28;20102;-54
2022/07/14 08:52:15;;;;;;;2.20;0.82;;;21.40;96.80;;;;;;5053454;28;20467;-54
2022/07/14 08:54:44;;;;;;;0.57;0.30;;;21.60;96.50;;;;;;5073026;28;20024;-53
2022/07/14 08:57:09;;;;;;;0.90;0.40;;;21.90;96.90;;;;;;5073751;28;20031;-53
2022/07/14 08:59:35;;;;;;;2.72;0.40;;;22.20;96.60;;;;;;5074801;28;20025;-56
2022/07/14 09:02:01;;;;;;;2.67;0.47;;;22.40;96.60;;;;;;5067817;28;20479;-54
2022/07/14 09:04:26;;;;;;;0.57;0.30;;;22.50;96.30;;;;;;5075697;28;20020;-51
2022/07/14 09:06:53;;;;;;;2.08;0.45;;;22.60;96.20;;;;;;5066751;28;20070;-54
2022/07/14 09:09:38;;;;;;;3.03;0.82;;;22.80;94.00;;;;;;5077641;28;20097;-57
2022/07/14 09:12:06;;;;;;;1.83;0.50;;;22.90;93.20;;;;;;5069375;28;20028;-53
2022/07/14 09:17:25;;;;;;;1.70;0.60;;;23.00;92.80;;;;;;5064624;28;20078;-57
2022/07/14 09:20:09;;;;;;;4.28;0.93;;;22.90;93.20;;;;;;5073783;28;20023;-54
2022/07/14 09:22:40;;;;;;;4.22;1.20;;;23.00;92.60;;;;;;5064728;28;20025;-57
2022/07/14 09:25:12;;;;;;;3.72;1.65;;;23.00;92.80;;;;;;5078784;28;20128;-50
2022/07/14 09:27:39;;;;;;;2.05;0.50;;;22.90;92.90;;;;;;5081094;28;20028;-56
2022/07/14 09:30:06;;;;;;;2.00;0.47;;;22.80;93.00;;;;;;5059949;28;20024;-55
2022/07/14 09:32:51;;;;;;;0.50;0.30;;;22.60;92.80;;;;;;5078834;28;20042;-51
2022/07/14 09:35:22;;;;;;;2.47;0.85;;;22.40;93.10;;;;;;5068152;28;20027;-54
2022/07/14 09:37:49;;;;;;;0.70;0.43;;;22.60;91.70;;;;;;5078296;28;20391;-59
2022/07/14 09:40:31;;;;;;;2.80;0.50;;;22.70;92.70;;;;;;5066991;28;20009;-54
2022/07/14 09:43:05;;;;;;;1.83;0.50;;;22.80;92.70;;;;;;5077745;28;20031;-53
2022/07/14 09:45:35;;;;;;;0.77;0.40;;;22.70;91.50;;;;;;5079996;28;20510;-53
2022/07/14 09:48:08;;;;;;;0.90;0.40;;;22.50;91.60;;;;;;5077405;28;20036;-51
2022/07/14 09:50:48;;;;;;;0.88;0.75;;;22.10;92.20;;;;;;5079133;28;20116;-49
2022/07/14 09:53:25;;;;;;;1.05;0.30;;;21.90;93.40;;;;;;5072752;28;20028;-50
2022/07/14 09:56:01;;;;;;;2.70;0.65;;;21.80;92.50;;;;;;5075775;28;20020;-50
2022/07/14 09:58:44;;;;;;;2.58;0.70;;;21.80;91.90;;;;;;5082004;28;20025;-54
2022/07/14 10:01:14;;;;;;;0.75;0.20;;;21.70;92.00;;;;;;5074992;28;20025;-51
2022/07/14 10:03:42;;;;;;;1.17;0.20;;;21.60;92.40;;;;;;5078125;28;20139;-51
2022/07/14 10:06:09;;;;;;;1.10;0.28;;;21.60;92.70;;;;;;5075516;28;20039;-55
2022/07/14 10:08:36;;;;;;;3.10;0.68;;;21.40;92.40;;;;;;5076968;28;20051;-51
2022/07/14 10:11:05;;;;;;;2.45;0.50;;;21.30;92.10;;;;;;5082001;28;20500;-50
2022/07/14 10:13:31;;;;;;;1.77;0.43;;;21.20;93.10;;;;;;5076195;28;20127;-51
2022/07/14 10:15:57;;;;;;;0.90;0.40;;;21.20;92.90;;;;;;5080217;28;20518;-50
2022/07/14 10:18:24;;;;;;;1.45;0.50;;;21.30;91.20;;;;;;5075429;28;20021;-56
2022/07/14 10:20:56;;;;;;;1.05;0.47;;;21.40;91.70;;;;;;5078433;28;20044;-50
2022/07/14 10:23:23;;;;;;;2.05;0.40;;;21.30;92.50;;;;;;5052798;28;20020;-52
2022/07/14 10:25:52;;;;;;;0.50;0.20;;;21.50;92.40;;;;;;5073840;28;20027;-56
2022/07/14 10:28:19;;;;;;;1.48;0.43;;;21.60;92.50;;;;;;5045223;28;20446;-56
2022/07/14 10:30:56;;;;;;;2.40;0.52;;;21.80;92.70;;;;;;5054503;28;20028;-51
2022/07/14 10:33:59;;;;;;;1.15;0.57;;;21.90;93.00;;;;;;5070146;28;20086;-52
2022/07/14 10:36:44;;;;;;;0.65;0.57;;;22.00;93.30;;;;;;5074617;28;20058;-53
2022/07/14 10:39:23;;;;;;;1.55;0.55;;;21.90;91.70;;;;;;5072290;28;20047;-53
2022/07/14 10:42:25;;;;;;;2.13;0.82;;;21.80;92.00;;;;;;5075635;28;20020;-56
2022/07/14 10:44:52;;;;;;;2.50;0.40;;;21.80;92.50;;;;;;5070794;28;20043;-54
2022/07/14 10:47:19;;;;;;;1.65;0.65;;;21.90;93.20;;;;;;5075501;28;20087;-54
2022/07/14 10:50:07;;;;;;;3.13;0.52;;;21.80;92.60;;;;;;5071646;28;20096;-54
2022/07/14 10:52:49;;;;;;;3.22;0.57;;;21.90;92.80;;;;;;5068622;28;20151;-54
2022/07/14 10:55:23;;;;;;;1.00;0.40;;;22.00;92.20;;;;;;5048242;28;20017;-56
2022/07/14 10:58:04;;;;;;;1.60;0.45;;;22.10;91.60;;;;;;5076114;28;20036;-55
2022/07/14 11:00:39;;;;;;;2.17;0.35;;;22.10;91.70;;;;;;5072567;28;20021;-51
2022/07/14 11:03:36;;;;;;;0.95;0.35;;;21.90;92.00;;;;;;5059731;28;20055;-57
2022/07/14 11:06:09;;;;;;;2.83;0.40;;;21.60;92.00;;;;;;5059998;28;20068;-52
2022/07/14 11:08:39;;;;;;;3.33;0.57;;;21.50;93.30;;;;;;5070120;28;20020;-53
2022/07/14 11:11:14;;;;;;;2.95;0.55;;;21.40;91.30;;;;;;5069573;28;20399;-62
2022/07/14 11:14:03;;;;;;;2.03;0.40;;;21.30;91.20;;;;;;5070029;28;20431;-51
2022/07/14 11:16:47;;;;;;;2.10;0.52;;;21.40;91.30;;;;;;5048605;28;20228;-53
2022/07/14 11:19:35;;;;;;;3.63;0.65;;;21.40;92.70;;;;;;5069269;28;20024;-52
2022/07/14 11:22:17;;;;;;;2.67;0.70;;;21.50;92.40;;;;;;5069004;28;20027;-57
2022/07/14 11:24:50;;;;;;;9.85;0.95;;;21.50;92.30;;;;;;5050508;28;20364;-50
2022/07/14 11:27:24;;;;;;;0.90;0.47;;;21.40;92.20;;;;;;5069220;28;20029;-51
2022/07/14 11:29:50;;;;;;;1.42;0.47;;;21.30;92.60;;;;;;5068647;28;20539;-55
2022/07/14 11:32:33;;;;;;;2.75;0.70;;;21.30;92.70;;;;;;5065676;28;20028;-52
2022/07/14 11:38:01;;;;;;;0.57;0.13;;;21.20;92.80;;;;;;5068790;28;20090;-51
2022/07/14 11:40:40;;;;;;;2.65;0.60;;;21.10;93.00;;;;;;5066675;28;20417;-51
2022/07/14 11:43:31;;;;;;;1.05;0.40;;;21.10;93.40;;;;;;5064847;28;20052;-58
2022/07/14 11:45:58;;;;;;;1.65;0.55;;;21.10;93.30;;;;;;5069135;28;20075;-50
2022/07/14 11:48:28;;;;;;;0.93;0.38;;;21.10;93.70;;;;;;5068625;28;20434;-54
2022/07/14 11:51:23;;;;;;;2.45;0.45;;;21.20;93.00;;;;;;5068519;28;20486;-57
2022/07/14 11:53:55;;;;;;;1.45;0.60;;;21.10;93.60;;;;;;5064416;28;20041;-53
2022/07/14 11:56:23;;;;;;;1.75;0.50;;;21.20;95.10;;;;;;5067218;28;20077;-55
2022/07/14 11:58:50;;;;;;;1.27;0.60;;;21.20;93.60;;;;;;5069032;28;20037;-55
2022/07/14 12:01:15;;;;;;;5.88;0.90;;;21.10;93.20;;;;;;5068594;28;20028;-53
2022/07/14 12:03:41;;;;;;;3.00;0.90;;;21.00;93.90;;;;;;5050426;28;20027;-53
2022/07/14 12:06:07;;;;;;;3.50;0.60;;;21.00;93.60;;;;;;5068851;28;20024;-54
2022/07/14 12:08:37;;;;;;;2.92;0.50;;;20.90;93.50;;;;;;5068831;28;20103;-56
2022/07/14 12:11:04;;;;;;;2.28;0.40;;;20.60;93.90;;;;;;5067914;28;20025;-55
2022/07/14 12:13:31;;;;;;;2.92;1.08;;;20.60;94.70;;;;;;5067681;28;20081;-52
2022/07/14 12:16:02;;;;;;;3.47;1.02;;;20.60;94.60;;;;;;5068062;28;20032;-52
2022/07/14 12:18:34;;;;;;;2.17;1.02;;;20.50;94.80;;;;;;5049694;28;20017;-53
2022/07/14 12:21:00;;;;;;;0.80;0.40;;;20.40;94.50;;;;;;5066501;28;20033;-54
2022/07/14 12:23:27;;;;;;;2.65;0.68;;;20.40;94.60;;;;;;5068331;28;20085;-54
2022/07/14 12:25:53;;;;;;;0.63;0.35;;;20.50;95.00;;;;;;5050461;28;20027;-55
2022/07/14 12:28:21;;;;;;;1.83;0.38;;;20.50;95.10;;;;;;5068686;28;20490;-56
2022/07/14 12:30:50;;;;;;;1.08;0.40;;;20.50;95.50;;;;;;5068478;28;20075;-52
2022/07/14 12:33:23;;;;;;;1.45;0.30;;;20.50;95.50;;;;;;5065539;28;20025;-51
2022/07/14 12:35:52;;;;;;;1.35;0.30;;;20.50;95.70;;;;;;5063561;28;20107;-55
2022/07/14 12:38:19;;;;;;;0.57;0.30;;;20.40;95.40;;;;;;5066312;28;20078;-57
2022/07/14 12:40:57;;;;;;;1.55;0.35;;;20.40;95.90;;;;;;5066085;28;20036;-54
2022/07/14 12:43:23;;;;;;;1.10;0.40;;;20.50;96.10;;;;;;5071825;22;20036;-53
2022/07/14 12:46:02;;;;;;;2.53;0.43;;;20.40;96.00;;;;;;5064893;28;20085;-56
2022/07/14 12:48:29;;;;;;;2.97;0.73;;;20.30;96.00;;;;;;5072267;28;20493;-52
2022/07/14 12:50:55;;;;;;;2.85;0.60;;;20.30;97.00;;;;;;5070908;28;20025;-49
2022/07/14 12:53:21;;;;;;;2.75;0.65;;;20.40;95.90;;;;;;5074606;28;20439;-49
2022/07/14 12:55:46;;;;;;;1.95;0.43;;;20.30;95.10;;;;;;5075840;28;20063;-48
2022/07/14 12:58:14;;;;;;;2.13;0.77;;;20.30;95.20;;;;;;5075432;28;20454;-55
2022/07/14 13:00:44;;;;;;;1.45;0.55;;;20.40;96.00;;;;;;5072875;28;20016;-50
2022/07/14 13:03:16;;;;;;;4.03;0.75;;;20.50;94.80;;;;;;5072258;28;20036;-48
2022/07/14 13:05:51;;;;;;;4.22;0.80;;;20.50;94.50;;;;;;5072383;28;20367;-48
2022/07/14 13:08:36;;;;;;;2.37;0.80;;;20.50;95.10;;;;;;5064886;28;20024;-53
2022/07/14 13:11:06;;;;;;;1.75;0.80;;;20.60;95.70;;;;;;5069770;28;20517;-48